createdAt,value
2017-12-25T00:02:16.890Z,4.80
2017-12-25T00:04:44.467Z,4.20
2017-12-25T00:07:12.110Z,5.53
2017-12-25T00:09:39.686Z,4.70
2017-12-25T00:12:07.270Z,5.13
2017-12-25T00:14:34.848Z,4.40
2017-12-25T00:17:02.506Z,5.63
2017-12-25T00:19:30.167Z,5.60
2017-12-25T00:21:57.738Z,6.27
2017-12-25T00:24:25.306Z,7.73
2017-12-25T00:26:52.875Z,5.83
2017-12-25T00:29:20.450Z,5.87
2017-12-25T00:31:48.062Z,8.47
2017-12-25T00:34:15.638Z,5.90
2017-12-25T00:36:43.214Z,7.90
2017-12-25T00:39:10.792Z,7.30
2017-12-25T00:41:38.398Z,5.67
2017-12-25T00:44:05.983Z,6.50
2017-12-25T00:46:33.559Z,7.40
2017-12-25T00:49:01.134Z,8.73
2017-12-25T00:51:28.696Z,5.67
2017-12-25T00:53:56.315Z,7.80
2017-12-25T00:56:23.903Z,6.43
2017-12-25T00:58:51.471Z,5.10
2017-12-25T01:01:19.263Z,7.43
2017-12-25T01:03:46.827Z,6.23
2017-12-25T01:06:14.438Z,5.20
2017-12-25T01:08:42.008Z,4.13
2017-12-25T01:11:09.619Z,5.07
2017-12-25T01:13:37.195Z,8.03
2017-12-25T01:16:04.810Z,5.37
2017-12-25T01:18:32.381Z,3.13
2017-12-25T01:20:59.954Z,3.93
2017-12-25T01:23:27.535Z,3.47
2017-12-25T01:25:55.107Z,4.60
2017-12-25T01:28:22.719Z,6.83
2017-12-25T01:30:50.292Z,4.43
2017-12-25T01:33:17.862Z,3.40
2017-12-25T01:35:45.471Z,4.50
2017-12-25T01:38:13.083Z,3.70
2017-12-25T01:40:40.655Z,4.47
2017-12-25T01:43:08.262Z,6.70
2017-12-25T01:45:35.883Z,8.13
2017-12-25T01:48:03.460Z,3.33
2017-12-25T01:50:31.031Z,4.70
2017-12-25T01:52:58.607Z,4.33
2017-12-25T01:55:27.110Z,6.50
2017-12-25T01:58:00.117Z,5.67
2017-12-25T02:00:34.235Z,6.23
2017-12-25T02:03:01.847Z,5.27
2017-12-25T02:05:30.329Z,6.50
2017-12-25T02:08:05.638Z,5.60
2017-12-25T02:10:33.214Z,7.00
2017-12-25T02:13:00.831Z,6.63
2017-12-25T02:15:28.491Z,5.73
2017-12-25T02:17:56.784Z,7.07
2017-12-25T02:20:24.396Z,5.43
2017-12-25T02:22:52.057Z,6.20
2017-12-25T02:25:19.887Z,5.93
2017-12-25T02:27:47.459Z,7.23
2017-12-25T02:30:15.037Z,3.70
2017-12-25T02:32:42.608Z,4.33
2017-12-25T02:35:10.267Z,4.13
2017-12-25T02:37:37.932Z,5.10
2017-12-25T02:40:05.508Z,6.00
2017-12-25T02:42:33.074Z,4.40
2017-12-25T02:45:00.771Z,5.70
2017-12-25T02:47:28.335Z,6.83
2017-12-25T02:49:55.912Z,4.17
2017-12-25T02:52:23.483Z,4.00
2017-12-25T02:54:51.067Z,4.43
2017-12-25T02:57:19.701Z,6.17
2017-12-25T02:59:47.342Z,7.53
2017-12-25T03:02:14.904Z,6.70
2017-12-25T03:04:42.479Z,6.53
2017-12-25T03:07:10.057Z,5.70
2017-12-25T03:09:37.626Z,5.90
2017-12-25T03:12:05.199Z,4.37
2017-12-25T03:14:32.810Z,4.43
2017-12-25T03:17:00.383Z,6.47
2017-12-25T03:19:28.004Z,5.60
2017-12-25T03:21:55.578Z,6.60
2017-12-25T03:24:23.221Z,5.33
2017-12-25T03:26:51.704Z,7.10
2017-12-25T03:29:19.274Z,5.90
2017-12-25T03:31:47.493Z,8.00
2017-12-25T03:34:15.066Z,6.80
2017-12-25T03:36:42.634Z,5.83
2017-12-25T03:39:10.212Z,5.83
2017-12-25T03:41:38.003Z,5.67
2017-12-25T03:44:05.575Z,6.90
2017-12-25T03:46:33.216Z,5.40
2017-12-25T03:49:00.781Z,6.47
2017-12-25T03:51:29.287Z,6.50
2017-12-25T03:53:56.856Z,5.93
2017-12-25T03:56:25.317Z,5.90
2017-12-25T03:58:52.887Z,5.27
2017-12-25T04:01:20.453Z,8.67
2017-12-25T04:03:48.022Z,7.60
2017-12-25T04:06:15.622Z,6.07
2017-12-25T04:08:43.190Z,6.60
2017-12-25T04:11:10.764Z,6.83
2017-12-25T04:13:38.382Z,7.40
2017-12-25T04:16:05.950Z,6.97
2017-12-25T04:18:33.557Z,6.90
2017-12-25T04:21:02.030Z,8.70
2017-12-25T04:23:29.611Z,11.00
2017-12-25T04:25:57.174Z,6.47
2017-12-25T04:28:24.813Z,8.47
2017-12-25T04:30:53.404Z,7.50
2017-12-25T04:33:21.015Z,6.10
2017-12-25T04:35:49.338Z,6.00
2017-12-25T04:38:16.959Z,5.60
2017-12-25T04:40:44.566Z,5.23
2017-12-25T04:43:12.200Z,6.47
2017-12-25T04:45:40.551Z,5.63
2017-12-25T04:48:08.892Z,7.00
2017-12-25T04:50:36.472Z,3.87
2017-12-25T04:53:04.037Z,4.40
2017-12-25T04:55:31.646Z,3.47
2017-12-25T04:58:00.151Z,6.13
2017-12-25T05:00:27.805Z,6.53
2017-12-25T05:02:56.150Z,4.67
2017-12-25T05:05:25.269Z,4.97
2017-12-25T05:07:52.830Z,4.90
2017-12-25T05:10:21.227Z,5.80
2017-12-25T05:12:48.894Z,5.30
2017-12-25T05:15:17.358Z,6.33
2017-12-25T05:17:45.954Z,5.03
2017-12-25T05:20:13.532Z,6.67
2017-12-25T05:22:41.098Z,4.10
2017-12-25T05:25:09.456Z,10.70
2017-12-25T05:27:37.074Z,8.20
2017-12-25T05:30:04.641Z,3.70
2017-12-25T05:32:32.203Z,4.33
2017-12-25T05:35:00.549Z,7.80
2017-12-25T05:37:28.153Z,6.00
2017-12-25T05:39:55.758Z,3.30
2017-12-25T05:42:24.167Z,5.37
2017-12-25T05:44:51.738Z,3.57
2017-12-25T05:47:19.347Z,4.40
2017-12-25T05:49:47.015Z,3.83
2017-12-25T05:52:14.623Z,3.30
2017-12-25T05:54:42.231Z,2.43
2017-12-25T05:57:09.795Z,7.00
2017-12-25T05:59:38.157Z,3.63
2017-12-25T06:02:05.732Z,4.10
2017-12-25T06:04:33.310Z,4.13
2017-12-25T06:07:00.942Z,4.13
2017-12-25T06:09:28.523Z,4.70
2017-12-25T06:11:56.183Z,2.60
2017-12-25T06:14:23.752Z,2.87
2017-12-25T06:16:52.225Z,2.57
2017-12-25T06:19:19.803Z,3.37
2017-12-25T06:21:47.375Z,4.60
2017-12-25T06:24:14.964Z,2.70
2017-12-25T06:26:42.531Z,2.50
2017-12-25T06:29:10.102Z,2.40
2017-12-25T06:31:37.671Z,2.90
2017-12-25T06:34:05.251Z,3.77
2017-12-25T06:36:32.850Z,3.23
2017-12-25T06:39:00.475Z,2.97
2017-12-25T06:41:28.148Z,3.03
2017-12-25T06:43:55.735Z,3.87
2017-12-25T06:46:23.346Z,3.30
2017-12-25T06:48:50.916Z,6.13
2017-12-25T06:51:18.533Z,2.80
2017-12-25T06:53:46.104Z,4.37
2017-12-25T06:56:13.674Z,2.60
2017-12-25T06:58:41.267Z,3.10
2017-12-25T07:01:09.901Z,2.33
2017-12-25T07:03:37.507Z,2.60
2017-12-25T07:06:05.071Z,2.93
2017-12-25T07:08:32.678Z,2.30
2017-12-25T07:11:00.313Z,1.70
2017-12-25T07:13:27.890Z,2.80
2017-12-25T07:15:55.457Z,2.67
2017-12-25T07:18:23.019Z,4.27
2017-12-25T07:20:50.580Z,3.53
2017-12-25T07:23:19.177Z,2.40
2017-12-25T07:25:47.607Z,3.90
2017-12-25T07:28:15.177Z,5.90
2017-12-25T07:30:42.781Z,2.37
2017-12-25T07:33:10.347Z,2.87
2017-12-25T07:35:37.952Z,3.23
2017-12-25T07:38:05.522Z,1.93
2017-12-25T07:40:33.867Z,2.70
2017-12-25T07:43:02.380Z,2.37
2017-12-25T07:45:30.887Z,2.27
2017-12-25T07:47:59.221Z,1.50
2017-12-25T07:50:26.789Z,3.13
2017-12-25T07:52:55.176Z,2.00
2017-12-25T07:55:23.557Z,2.30
2017-12-25T07:57:51.995Z,1.50
2017-12-25T08:00:21.195Z,2.03
2017-12-25T08:02:48.898Z,2.40
2017-12-25T08:05:17.360Z,3.00
2017-12-25T08:07:45.759Z,4.20
2017-12-25T08:10:14.179Z,3.90
2017-12-25T08:12:41.755Z,1.90
2017-12-25T08:15:10.371Z,2.87
2017-12-25T08:17:38.720Z,2.87
2017-12-25T08:20:07.097Z,3.30
2017-12-25T08:22:34.702Z,2.73
2017-12-25T08:25:02.296Z,5.90
2017-12-25T08:27:30.799Z,3.07
2017-12-25T08:29:58.402Z,3.10
2017-12-25T08:32:26.114Z,2.73
2017-12-25T08:34:54.629Z,3.00
2017-12-25T08:37:22.751Z,4.40
2017-12-25T08:39:50.328Z,2.50
2017-12-25T08:42:17.898Z,8.20
2017-12-25T08:44:45.498Z,4.37
2017-12-25T08:47:13.067Z,2.20
2017-12-25T08:49:40.668Z,3.83
2017-12-25T08:52:09.151Z,2.03
2017-12-25T08:54:37.557Z,2.40
2017-12-25T08:57:05.923Z,2.33
2017-12-25T08:59:33.546Z,2.97
2017-12-25T09:02:01.934Z,5.43
2017-12-25T09:04:30.283Z,3.50
2017-12-25T09:06:58.754Z,2.80
2017-12-25T09:09:26.849Z,1.70
2017-12-25T09:11:54.460Z,2.77
2017-12-25T09:14:22.956Z,2.47
2017-12-25T09:16:50.558Z,1.83
2017-12-25T09:19:18.184Z,3.27
2017-12-25T09:21:45.888Z,2.33
2017-12-25T09:24:14.412Z,2.83
2017-12-25T09:26:41.980Z,3.33
2017-12-25T09:29:09.554Z,2.83
2017-12-25T09:31:37.136Z,2.73
2017-12-25T09:34:04.707Z,2.53
2017-12-25T09:36:32.324Z,2.40
2017-12-25T09:38:59.898Z,2.67
2017-12-25T09:41:27.466Z,2.43
2017-12-25T09:43:55.042Z,2.60
2017-12-25T09:46:22.615Z,2.60
2017-12-25T09:48:50.246Z,4.03
2017-12-25T09:51:18.619Z,2.20
2017-12-25T09:53:46.185Z,1.93
2017-12-25T09:56:13.757Z,2.30
2017-12-25T09:58:41.366Z,2.00
2017-12-25T10:01:09.023Z,1.43
2017-12-25T10:03:36.678Z,3.20
2017-12-25T10:06:04.248Z,2.13
2017-12-25T10:08:31.826Z,2.63
2017-12-25T10:10:59.429Z,2.40
2017-12-25T10:13:27.862Z,3.00
2017-12-25T10:15:56.216Z,6.00
2017-12-25T10:18:23.779Z,2.20
2017-12-25T10:20:51.426Z,4.07
2017-12-25T10:23:19.022Z,3.40
2017-12-25T10:25:46.587Z,3.53
2017-12-25T10:28:14.163Z,3.00
2017-12-25T10:30:42.707Z,3.42
2017-12-25T10:33:10.327Z,2.90
2017-12-25T10:35:37.941Z,3.90
2017-12-25T10:38:10.461Z,3.77
2017-12-25T10:40:38.046Z,3.10
2017-12-25T10:43:05.663Z,3.07
2017-12-25T10:45:37.374Z,2.73
2017-12-25T10:48:04.998Z,4.40
2017-12-25T10:50:33.546Z,2.87
2017-12-25T10:53:02.018Z,2.90
2017-12-25T10:55:30.475Z,3.43
2017-12-25T10:57:59.093Z,2.73
2017-12-25T11:00:32.371Z,2.37
2017-12-25T11:03:00.895Z,3.90
2017-12-25T11:05:28.482Z,2.57
2017-12-25T11:07:56.086Z,2.33
2017-12-25T11:10:23.667Z,3.03
2017-12-25T11:12:52.035Z,2.03
2017-12-25T11:15:20.383Z,4.37
2017-12-25T11:17:48.027Z,2.70
2017-12-25T11:20:15.635Z,2.63
2017-12-25T11:22:43.242Z,2.40
2017-12-25T11:25:10.895Z,2.67
2017-12-25T11:27:38.470Z,2.70
2017-12-25T11:30:06.962Z,2.53
2017-12-25T11:32:34.578Z,2.63
2017-12-25T11:35:02.366Z,2.30
2017-12-25T11:37:30.953Z,2.33
2017-12-25T11:39:58.682Z,2.60
2017-12-25T11:42:26.259Z,1.83
2017-12-25T11:44:53.903Z,2.50
2017-12-25T11:47:21.477Z,2.13
2017-12-25T11:49:49.943Z,2.03
2017-12-25T11:52:18.924Z,2.77
2017-12-25T11:54:47.435Z,2.23
2017-12-25T11:57:15.789Z,3.00
2017-12-25T11:59:44.147Z,2.13
2017-12-25T12:02:11.784Z,18.47
2017-12-25T12:04:39.358Z,2.10
2017-12-25T12:07:07.079Z,2.27
2017-12-25T12:09:35.548Z,2.80
2017-12-25T12:12:03.175Z,1.80
2017-12-25T12:14:31.681Z,2.83
2017-12-25T12:16:59.286Z,3.27
2017-12-25T12:19:27.792Z,2.00
2017-12-25T12:21:55.366Z,3.90
2017-12-25T12:24:22.971Z,1.60
2017-12-25T12:26:50.544Z,1.63
2017-12-25T12:29:18.150Z,3.27
2017-12-25T12:31:46.564Z,2.63
2017-12-25T12:34:14.130Z,2.63
2017-12-25T12:36:42.614Z,1.63
2017-12-25T12:39:11.095Z,4.73
2017-12-25T12:41:39.607Z,2.10
2017-12-25T12:44:08.087Z,3.20
2017-12-25T12:46:36.534Z,2.10
2017-12-25T12:49:05.022Z,2.53
2017-12-25T12:51:33.403Z,1.60
2017-12-25T12:54:01.945Z,2.50
2017-12-25T12:56:29.519Z,1.67
2017-12-25T12:58:57.994Z,1.33
2017-12-25T13:01:26.363Z,1.33
2017-12-25T13:03:54.879Z,1.70
2017-12-25T13:06:23.220Z,1.43
2017-12-25T13:08:51.750Z,4.23
2017-12-25T13:11:19.363Z,2.40
2017-12-25T13:13:46.974Z,1.63
2017-12-25T13:16:15.492Z,3.53
2017-12-25T13:18:43.109Z,1.33
2017-12-25T13:21:10.816Z,2.50
2017-12-25T13:23:39.347Z,1.67
2017-12-25T13:26:07.038Z,1.33
2017-12-25T13:28:34.690Z,1.53
2017-12-25T13:31:02.355Z,1.50
2017-12-25T13:33:30.467Z,1.33
2017-12-25T13:35:58.095Z,1.30
2017-12-25T13:38:26.675Z,1.10
2017-12-25T13:40:55.155Z,1.37
2017-12-25T13:43:22.768Z,1.00
2017-12-25T13:45:50.374Z,1.83
2017-12-25T13:48:18.049Z,2.50
2017-12-25T13:50:45.707Z,1.50
2017-12-25T13:53:14.216Z,3.43
2017-12-25T13:55:42.614Z,3.33
2017-12-25T13:58:11.000Z,1.90
2017-12-25T14:00:39.480Z,2.77
2017-12-25T14:03:07.863Z,1.63
2017-12-25T14:05:35.507Z,2.43
2017-12-25T14:08:03.908Z,1.30
2017-12-25T14:10:32.402Z,1.90
2017-12-25T14:13:00.098Z,1.23
2017-12-25T14:15:27.765Z,2.03
2017-12-25T14:17:55.428Z,1.73
2017-12-25T14:20:23.094Z,1.27
2017-12-25T14:22:50.755Z,1.67
2017-12-25T14:25:18.323Z,1.30
2017-12-25T14:27:45.930Z,2.83
2017-12-25T14:30:13.499Z,1.20
2017-12-25T14:32:41.067Z,1.10
2017-12-25T14:35:08.660Z,1.90
2017-12-25T14:37:36.229Z,1.00
2017-12-25T14:40:03.808Z,2.03
2017-12-25T14:42:31.410Z,3.20
2017-12-25T14:44:58.982Z,4.13
2017-12-25T14:47:26.662Z,1.73
2017-12-25T14:49:54.236Z,1.77
2017-12-25T14:52:22.594Z,2.27
2017-12-25T14:54:50.171Z,1.27
2017-12-25T14:57:17.786Z,1.27
2017-12-25T14:59:46.315Z,1.47
2017-12-25T15:02:13.974Z,7.73
2017-12-25T15:04:41.556Z,2.50
2017-12-25T15:07:09.131Z,1.47
2017-12-25T15:09:36.707Z,1.33
2017-12-25T15:12:04.324Z,1.30
2017-12-25T15:14:31.890Z,1.47
2017-12-25T15:16:59.547Z,4.03
2017-12-25T15:19:27.212Z,2.10
2017-12-25T15:21:55.560Z,1.53
2017-12-25T15:24:23.185Z,1.00
2017-12-25T15:26:50.807Z,0.80
2017-12-25T15:29:18.379Z,0.87
2017-12-25T15:31:45.955Z,1.07
2017-12-25T15:34:13.594Z,1.07
2017-12-25T15:36:41.246Z,1.47
2017-12-25T15:39:08.811Z,1.13
2017-12-25T15:41:36.378Z,2.40
2017-12-25T15:44:03.958Z,1.10
2017-12-25T15:46:32.478Z,2.70
2017-12-25T15:49:00.084Z,1.83
2017-12-25T15:51:27.655Z,0.93
2017-12-25T15:53:55.241Z,1.30
2017-12-25T15:56:22.853Z,1.10
2017-12-25T15:58:50.459Z,2.00
2017-12-25T16:01:18.028Z,2.03
2017-12-25T16:03:46.538Z,1.03
2017-12-25T16:06:14.958Z,0.90
2017-12-25T16:08:42.614Z,1.10
2017-12-25T16:11:10.274Z,0.93
2017-12-25T16:13:37.843Z,1.17
2017-12-25T16:16:05.523Z,0.90
2017-12-25T16:18:33.151Z,1.17
2017-12-25T16:21:00.722Z,2.40
2017-12-25T16:23:28.388Z,1.20
2017-12-25T16:25:56.866Z,3.13
2017-12-25T16:28:25.257Z,1.40
2017-12-25T16:30:53.707Z,1.43
2017-12-25T16:33:22.222Z,1.40
2017-12-25T16:35:50.803Z,1.33
2017-12-25T16:38:19.146Z,1.37
2017-12-25T16:40:47.522Z,1.13
2017-12-25T16:43:15.947Z,1.40
2017-12-25T16:45:44.230Z,0.90
2017-12-25T16:48:11.880Z,1.03
2017-12-25T16:50:40.358Z,2.47
2017-12-25T16:53:07.926Z,1.80
2017-12-25T16:55:35.534Z,1.57
2017-12-25T16:58:03.105Z,1.43
2017-12-25T17:00:31.420Z,1.67
2017-12-25T17:02:58.987Z,1.50
2017-12-25T17:05:27.466Z,1.83
2017-12-25T17:07:55.131Z,1.60
2017-12-25T17:10:23.616Z,2.00
2017-12-25T17:12:51.203Z,1.80
2017-12-25T17:15:19.759Z,1.60
2017-12-25T17:17:47.394Z,2.37
2017-12-25T17:20:15.787Z,1.60
2017-12-25T17:22:44.189Z,1.80
2017-12-25T17:25:12.539Z,1.50
2017-12-25T17:27:41.048Z,1.90
2017-12-25T17:30:08.678Z,2.30
2017-12-25T17:32:37.186Z,4.80
2017-12-25T17:35:04.770Z,2.00
2017-12-25T17:37:33.190Z,1.73
2017-12-25T17:40:00.759Z,2.47
2017-12-25T17:42:29.378Z,4.10
2017-12-25T17:44:57.714Z,2.33
2017-12-25T17:47:25.414Z,2.27
2017-12-25T17:49:54.674Z,4.40
2017-12-25T17:52:22.263Z,2.73
2017-12-25T17:54:50.767Z,2.00
2017-12-25T17:57:19.287Z,2.27
2017-12-25T17:59:47.722Z,2.60
2017-12-25T18:02:16.143Z,2.50
2017-12-25T18:04:43.711Z,2.50
2017-12-25T18:07:11.276Z,2.00
2017-12-25T18:09:38.847Z,2.33
2017-12-25T18:12:06.459Z,1.87
2017-12-25T18:14:34.070Z,2.07
2017-12-25T18:17:01.783Z,1.80
2017-12-25T18:19:29.358Z,2.67
2017-12-25T18:21:56.922Z,2.23
2017-12-25T18:24:24.562Z,2.30
2017-12-25T18:26:52.228Z,2.43
2017-12-25T18:29:19.798Z,4.63
2017-12-25T18:31:47.453Z,2.40
2017-12-25T18:34:15.036Z,2.93
2017-12-25T18:36:43.525Z,2.90
2017-12-25T18:39:11.104Z,2.37
2017-12-25T18:41:38.715Z,2.57
2017-12-25T18:44:06.285Z,1.67
2017-12-25T18:46:33.945Z,2.50
2017-12-25T18:49:01.559Z,1.90
2017-12-25T18:51:29.982Z,3.80
2017-12-25T18:53:58.522Z,1.90
2017-12-25T18:56:26.134Z,2.20
2017-12-25T18:58:53.707Z,2.53
2017-12-25T19:01:21.357Z,2.10
2017-12-25T19:03:49.934Z,3.53
2017-12-25T19:06:17.607Z,2.80
2017-12-25T19:08:45.259Z,2.77
2017-12-25T19:11:12.887Z,2.73
2017-12-25T19:13:40.487Z,3.00
2017-12-25T19:16:08.977Z,2.53
2017-12-25T19:18:36.626Z,2.97
2017-12-25T19:21:04.294Z,2.40
2017-12-25T19:23:32.773Z,3.20
2017-12-25T19:26:00.344Z,2.87
2017-12-25T19:28:28.003Z,3.20
2017-12-25T19:30:55.667Z,2.83
2017-12-25T19:33:24.173Z,2.80
2017-12-25T19:35:54.443Z,4.77
2017-12-25T19:38:22.087Z,3.00
2017-12-25T19:40:49.700Z,3.23
2017-12-25T19:43:17.342Z,2.93
2017-12-25T19:45:45.055Z,3.17
2017-12-25T19:48:12.628Z,2.50
2017-12-25T19:50:40.239Z,2.90
2017-12-25T19:53:08.864Z,2.87
2017-12-25T19:55:36.442Z,3.17
2017-12-25T19:58:04.839Z,4.50
2017-12-25T20:00:33.184Z,3.53
2017-12-25T20:03:01.690Z,2.97
2017-12-25T20:05:30.138Z,3.07
2017-12-25T20:07:58.512Z,2.87
2017-12-25T20:10:26.883Z,3.37
2017-12-25T20:12:55.286Z,3.57
2017-12-25T20:15:22.923Z,3.70
2017-12-25T20:17:50.588Z,4.50
2017-12-25T20:20:19.288Z,7.97
2017-12-25T20:22:46.927Z,4.70
2017-12-25T20:25:14.595Z,3.70
2017-12-25T20:27:44.778Z,5.90
2017-12-25T20:30:15.370Z,4.40
2017-12-25T20:32:43.913Z,6.17
2017-12-25T20:35:16.235Z,5.43
2017-12-25T20:37:47.334Z,3.60
2017-12-25T20:40:15.281Z,4.10
2017-12-25T20:42:51.054Z,5.53
2017-12-25T20:45:20.444Z,5.43
2017-12-25T20:48:08.791Z,6.63
2017-12-25T20:50:54.760Z,6.00
2017-12-25T20:53:30.057Z,4.13
2017-12-25T20:55:58.618Z,4.00
2017-12-25T20:58:26.196Z,5.10
2017-12-25T21:00:54.002Z,3.47
2017-12-25T21:03:21.572Z,5.03
2017-12-25T21:05:49.175Z,5.13
2017-12-25T21:08:16.846Z,5.23
2017-12-25T21:10:44.643Z,5.07
2017-12-25T21:13:12.986Z,4.87
2017-12-25T21:15:40.554Z,4.60
2017-12-25T21:18:08.123Z,5.63
2017-12-25T21:20:35.782Z,5.70
2017-12-25T21:23:03.346Z,4.87
2017-12-25T21:25:30.920Z,5.70
2017-12-25T21:27:58.527Z,4.97
2017-12-25T21:30:26.134Z,6.17
2017-12-25T21:32:53.783Z,6.33
2017-12-25T21:35:21.456Z,6.30
2017-12-25T21:37:49.099Z,6.13
2017-12-25T21:40:16.959Z,6.60
2017-12-25T21:42:44.578Z,8.33
2017-12-25T21:45:12.208Z,8.70
2017-12-25T21:47:39.872Z,9.77
2017-12-25T21:50:07.448Z,8.20
2017-12-25T21:52:35.940Z,7.20
2017-12-25T21:55:03.512Z,7.73
2017-12-25T21:57:31.168Z,9.30
2017-12-25T21:59:58.774Z,9.73
2017-12-25T22:02:26.419Z,10.47
2017-12-25T22:04:53.986Z,10.23
2017-12-25T22:07:21.586Z,11.77
2017-12-25T22:09:49.159Z,8.73
2017-12-25T22:12:17.586Z,11.03
2017-12-25T22:14:45.723Z,11.37
2017-12-25T22:17:13.307Z,11.87
2017-12-25T22:19:40.875Z,10.80
2017-12-25T22:22:09.300Z,14.83
2017-12-25T22:24:37.684Z,12.87
2017-12-25T22:27:06.044Z,13.03
2017-12-25T22:29:33.655Z,14.93
2017-12-25T22:32:01.341Z,14.73
2017-12-25T22:34:28.954Z,11.53
2017-12-25T22:36:56.559Z,12.37
2017-12-25T22:39:25.073Z,12.07
2017-12-25T22:41:53.668Z,10.87
2017-12-25T22:44:21.276Z,13.57
2017-12-25T22:46:48.847Z,13.17
2017-12-25T22:49:16.459Z,15.80
2017-12-25T22:51:44.931Z,13.13
2017-12-25T22:54:13.427Z,15.20
2017-12-25T22:56:41.942Z,13.87
2017-12-25T22:59:09.811Z,18.00
2017-12-25T23:01:37.422Z,14.40
2017-12-25T23:04:05.102Z,13.27
2017-12-25T23:06:32.711Z,16.47
2017-12-25T23:09:00.286Z,14.13
2017-12-25T23:11:27.906Z,16.30
2017-12-25T23:13:55.486Z,20.27
2017-12-25T23:16:23.061Z,18.10
2017-12-25T23:18:50.670Z,19.87
2017-12-25T23:21:18.279Z,15.83
2017-12-25T23:23:46.723Z,15.50
2017-12-25T23:26:15.405Z,14.50
2017-12-25T23:28:42.988Z,17.20
2017-12-25T23:31:11.330Z,18.77
2017-12-25T23:33:38.903Z,17.73
2017-12-25T23:36:06.519Z,16.50
2017-12-25T23:38:34.122Z,15.30
2017-12-25T23:41:02.660Z,17.17
2017-12-25T23:43:30.237Z,17.50
2017-12-25T23:45:57.860Z,17.07
2017-12-25T23:48:26.226Z,16.50
2017-12-25T23:50:53.803Z,21.47
2017-12-25T23:53:22.288Z,16.10
2017-12-25T23:55:49.863Z,18.47
2017-12-25T23:58:17.483Z,17.80
